This is the latest recevied weather packets stored in our database for station/object SP1BMW-13. If no packets are shown the sender has not sent any weather packets the latest 10 day(s).
| Time | Temp. | Humidity | Pressure | Rain* | Wind** | Luminosity | Snow |
|---|---|---|---|---|---|---|---|
| 1787995821 | 22.78° C | 54% | 1010.1 hPa | 0 mm | 1.34 m/s, 183° | 416 W/m² | - |
| 1787995761 | 22.78° C | 54% | 1009.9 hPa | 0 mm | 0.89 m/s, 117° | 556 W/m² | - |
| 1787995701 | 22.78° C | 54% | 1009.9 hPa | 0 mm | 2.24 m/s, 166° | 528 W/m² | - |
| 1787995641 | 22.78° C | 54% | 1009.9 hPa | 0 mm | 1.79 m/s, 185° | 518 W/m² | - |
| 1787995581 | 22.78° C | 55% | 1009.9 hPa | 0 mm | 0.89 m/s, 301° | 402 W/m² | - |
| 1787995521 | 22.78° C | 55% | 1009.8 hPa | 0 mm | 0.45 m/s, 280° | 386 W/m² | - |
| 1787995461 | 23.33° C | 53% | 1009.8 hPa | 0 mm | 0.45 m/s, 269° | 300 W/m² | - |
| 1787995401 | 23.33° C | 54% | 1009.8 hPa | 0 mm | 0.45 m/s, 300° | 590 W/m² | - |
| 1787995341 | 23.33° C | 54% | 1009.9 hPa | 0 mm | 0 m/s | 535 W/m² | - |
| 1787995281 | 23.33° C | 54% | 1009.8 hPa | 0 mm | 0.89 m/s, 61° | 254 W/m² | - |
| 1787995220 | 23.33° C | 53% | 1009.8 hPa | 0 mm | 2.24 m/s, 126° | 292 W/m² | - |
| 1787995161 | 23.33° C | 54% | 1009.9 hPa | 0 mm | 1.34 m/s, 359° | 719 W/m² | - |
| 1787995101 | 23.33° C | 53% | 1009.8 hPa | 0 mm | 1.34 m/s, 172° | 577 W/m² | - |
| 1787995041 | 23.33° C | 54% | 1009.8 hPa | 0 mm | 1.34 m/s, 311° | 369 W/m² | - |
| 1787994981 | 23.33° C | 54% | 1009.8 hPa | 0 mm | 0.45 m/s, 176° | 600 W/m² | - |
| 1787994921 | 23.33° C | 54% | 1009.8 hPa | 0 mm | 0.89 m/s, 79° | 606 W/m² | - |
| 1787994861 | 23.33° C | 54% | 1009.9 hPa | 0 mm | 0.89 m/s, 247° | 347 W/m² | - |
| 1787994801 | 23.33° C | 54% | 1009.9 hPa | 0 mm | 1.79 m/s, 254° | 409 W/m² | - |
| 1787994741 | 22.78° C | 55% | 1009.7 hPa | 0 mm | 1.79 m/s, 146° | 678 W/m² | - |
| 1787994681 | 22.78° C | 56% | 1009.8 hPa | 0 mm | 1.34 m/s, 97° | 422 W/m² | - |
| 1787994621 | 22.78° C | 57% | 1009.8 hPa | 0 mm | 0 m/s | 695 W/m² | - |
| 1787994561 | 22.22° C | 58% | 1009.8 hPa | 0 mm | 0.45 m/s, 147° | 696 W/m² | - |
| 1787994501 | 22.22° C | 58% | 1009.9 hPa | 0 mm | 1.34 m/s, 296° | 694 W/m² | - |
| 1787994440 | 22.22° C | 59% | 1009.8 hPa | 0 mm | 1.79 m/s, 194° | 690 W/m² | - |
| 1787994380 | 22.22° C | 58% | 1009.8 hPa | 0 mm | 0.89 m/s, 266° | 665 W/m² | - |
* Rain latest hour (hover to see other rain measurements)
** Current wind speed in m/s (hover to see current wind gust speed)